Time;durP1;ratioP1;P1;durP2;ratioP2;P2;SDS_P1;SDS_P2;PMS_P1;PMS_P2;Temp;Humidity;BMP_temperature;BMP_pressure;BME280_temperature;BME280_humidity;BME280_pressure;Samples;Min_cycle;Max_cycle;Signal;HPM_P1;HPM_P2
2022/10/09 00:00:17;;;;;;;19.70;16.07;;;13.00;99.90;;;;;;5063517;28;20581;-78
2022/10/09 00:02:44;;;;;;;20.27;16.80;;;13.00;99.90;;;;;;5060063;28;20459;-78
2022/10/09 00:05:11;;;;;;;20.00;17.67;;;12.90;99.90;;;;;;5060228;28;20463;-78
2022/10/09 00:07:38;;;;;;;19.30;17.23;;;12.90;99.90;;;;;;5058842;28;20541;-78
2022/10/09 00:10:06;;;;;;;17.27;15.47;;;12.90;99.90;;;;;;5061753;28;21102;-78
2022/10/09 00:12:32;;;;;;;22.40;15.50;;;12.90;99.90;;;;;;5060648;28;20463;-78
2022/10/09 00:14:59;;;;;;;17.97;16.10;;;12.90;99.90;;;;;;5058587;28;20540;-78
2022/10/09 00:17:28;;;;;;;23.03;17.60;;;12.90;99.90;;;;;;5060477;28;20849;-78
2022/10/09 00:19:55;;;;;;;25.37;17.57;;;12.90;99.90;;;;;;5060679;28;20789;-78
2022/10/09 00:22:21;;;;;;;21.73;15.63;;;12.90;99.90;;;;;;5062096;28;20527;-78
2022/10/09 00:24:48;;;;;;;19.67;16.57;;;12.90;99.90;;;;;;5059585;28;20467;-78
2022/10/09 00:27:15;;;;;;;19.70;14.53;;;12.90;99.90;;;;;;5063259;28;20521;-78
2022/10/09 00:29:42;;;;;;;20.57;18.37;;;12.90;99.90;;;;;;5059628;28;20584;-78
2022/10/09 00:32:09;;;;;;;18.57;16.23;;;12.90;99.90;;;;;;5063182;28;20470;-78
2022/10/09 00:34:37;;;;;;;19.50;16.33;;;12.90;99.90;;;;;;5062339;28;20471;-77
2022/10/09 00:37:04;;;;;;;17.83;16.07;;;12.90;99.90;;;;;;5059101;28;20462;-78
2022/10/09 00:39:31;;;;;;;22.83;16.10;;;12.80;99.90;;;;;;5068419;28;20459;-77
2022/10/09 00:41:58;;;;;;;20.80;17.13;;;12.80;99.90;;;;;;5061504;28;20547;-78
2022/10/09 00:44:49;;;;;;;25.03;17.87;;;12.80;99.90;;;;;;5059915;28;20896;-78
2022/10/09 00:47:21;;;;;;;25.17;18.10;;;12.80;99.90;;;;;;5056019;28;20461;-78
2022/10/09 00:49:52;;;;;;;22.33;16.93;;;12.70;99.90;;;;;;5057539;28;20462;-78
2022/10/09 00:52:20;;;;;;;20.03;15.80;;;12.70;99.90;;;;;;5062588;28;20473;-78
2022/10/09 00:54:47;;;;;;;25.93;19.33;;;12.70;99.90;;;;;;5059418;28;20551;-78
2022/10/09 00:57:14;;;;;;;25.57;20.70;;;12.70;99.90;;;;;;5061129;28;20500;-78
2022/10/09 00:59:41;;;;;;;40.23;19.63;;;12.60;99.90;;;;;;5057350;28;20515;-78
2022/10/09 01:02:08;;;;;;;20.33;18.20;;;12.60;99.90;;;;;;5060903;28;20501;-78
2022/10/09 01:04:36;;;;;;;22.87;18.83;;;12.60;99.90;;;;;;5058018;28;20461;-78
2022/10/09 01:07:17;;;;;;;24.97;19.07;;;12.50;99.90;;;;;;5056955;28;20488;-78
2022/10/09 01:09:50;;;;;;;21.63;18.23;;;12.50;99.90;;;;;;5058260;28;20462;-78
2022/10/09 01:12:25;;;;;;;25.20;17.93;;;12.40;99.90;;;;;;5062936;28;20469;-78
2022/10/09 01:15:00;;;;;;;24.63;19.97;;;12.30;99.90;;;;;;5061992;28;20506;-78
2022/10/09 01:17:35;;;;;;;20.53;18.20;;;12.30;99.90;;;;;;5062193;28;20523;-78
2022/10/09 01:20:34;;;;;;;21.97;17.20;;;12.30;99.90;;;;;;5060349;28;20521;-78
2022/10/09 01:23:40;;;;;;;20.27;15.57;;;12.20;99.90;;;;;;5055441;28;20473;-78
2022/10/09 01:26:20;;;;;;;25.67;15.83;;;12.00;99.90;;;;;;5019334;28;20497;-78
2022/10/09 01:28:53;;;;;;;16.90;12.03;;;12.00;99.90;;;;;;5060062;28;20515;-78
2022/10/09 01:31:22;;;;;;;11.27;9.80;;;11.90;99.90;;;;;;5058837;28;20566;-77
2022/10/09 01:33:50;;;;;;;11.27;10.17;;;11.80;99.90;;;;;;5060231;28;20468;-77
2022/10/09 01:36:19;;;;;;;12.80;8.63;;;11.70;99.90;;;;;;5059810;28;20457;-77
2022/10/09 01:38:48;;;;;;;12.43;8.80;;;11.60;99.90;;;;;;5058604;28;20927;-77
2022/10/09 01:41:15;;;;;;;10.40;8.83;;;11.50;99.90;;;;;;5060325;28;20516;-78
2022/10/09 01:43:42;;;;;;;9.80;8.77;;;11.50;99.90;;;;;;5059920;28;20465;-78
2022/10/09 01:46:22;;;;;;;11.93;8.80;;;11.50;99.90;;;;;;5059373;28;20469;-77
2022/10/09 01:48:57;;;;;;;11.83;8.43;;;11.40;99.90;;;;;;5056388;28;20468;-78
2022/10/09 01:51:30;;;;;;;9.73;6.00;;;11.30;99.90;;;;;;5058851;28;20479;-78
2022/10/09 01:54:02;;;;;;;6.77;6.03;;;11.20;99.90;;;;;;5060997;28;20957;-78
2022/10/09 01:56:33;;;;;;;9.90;5.37;;;11.20;99.90;;;;;;5061447;28;20451;-78
2022/10/09 01:59:06;;;;;;;5.90;5.30;;;11.10;99.90;;;;;;5060772;28;20866;-77
2022/10/09 02:01:38;;;;;;;5.40;4.60;;;11.10;99.90;;;;;;5062847;28;20487;-75
2022/10/09 02:04:10;;;;;;;4.30;3.67;;;11.10;99.90;;;;;;5058090;28;20451;-75
2022/10/09 02:06:39;;;;;;;5.10;3.30;;;11.00;99.90;;;;;;5058357;28;20488;-75
2022/10/09 02:09:11;;;;;;;4.23;3.20;;;11.00;99.90;;;;;;5060667;28;21548;-75
2022/10/09 02:11:39;;;;;;;3.80;2.60;;;10.90;99.90;;;;;;5062349;28;20532;-76
2022/10/09 02:14:07;;;;;;;3.73;2.80;;;10.90;99.90;;;;;;5060131;28;20714;-75
2022/10/09 02:16:39;;;;;;;7.10;3.40;;;10.80;99.90;;;;;;5060264;28;20548;-75
2022/10/09 02:19:11;;;;;;;7.10;3.90;;;10.70;99.90;;;;;;5057988;28;20459;-75
2022/10/09 02:21:42;;;;;;;4.70;2.33;;;10.70;99.90;;;;;;5062337;28;20515;-75
2022/10/09 02:24:13;;;;;;;5.43;3.30;;;10.70;99.90;;;;;;5058724;28;21006;-75
2022/10/09 02:26:41;;;;;;;4.97;3.60;;;10.60;99.90;;;;;;5060977;28;20459;-75
2022/10/09 02:29:08;;;;;;;3.80;3.50;;;10.60;99.90;;;;;;5053918;28;20459;-75
2022/10/09 02:31:38;;;;;;;3.10;2.60;;;10.50;99.90;;;;;;5064950;28;20455;-75
2022/10/09 02:34:08;;;;;;;2.73;2.53;;;10.50;99.90;;;;;;5064281;28;20514;-75
2022/10/09 02:36:36;;;;;;;4.37;2.53;;;10.30;99.90;;;;;;5065300;28;20463;-75
2022/10/09 02:39:04;;;;;;;3.87;2.20;;;10.30;99.90;;;;;;5063587;28;20492;-75
2022/10/09 02:41:31;;;;;;;3.40;2.50;;;10.30;99.90;;;;;;5067142;28;20566;-75
2022/10/09 02:43:58;;;;;;;2.03;1.93;;;10.20;99.90;;;;;;5061156;28;20549;-75
2022/10/09 02:46:25;;;;;;;2.73;2.13;;;10.20;99.90;;;;;;5064683;28;20468;-75
2022/10/09 02:48:54;;;;;;;5.60;2.97;;;10.00;99.90;;;;;;5062992;28;20947;-75
2022/10/09 02:51:21;;;;;;;4.50;1.93;;;9.90;99.90;;;;;;5063445;28;20504;-76
2022/10/09 02:53:48;;;;;;;4.27;2.23;;;9.80;99.90;;;;;;5062611;28;20467;-76
2022/10/09 02:56:15;;;;;;;4.87;2.10;;;9.70;99.90;;;;;;5067221;28;20447;-76
2022/10/09 02:58:42;;;;;;;7.93;2.87;;;9.60;99.90;;;;;;5064039;28;20528;-76
2022/10/09 03:01:09;;;;;;;2.77;2.47;;;9.50;99.90;;;;;;5064096;28;20871;-76
2022/10/09 03:03:36;;;;;;;4.43;2.30;;;9.60;99.90;;;;;;5063991;28;20487;-76
2022/10/09 03:06:08;;;;;;;2.23;1.47;;;9.70;99.90;;;;;;5065210;28;20463;-75
2022/10/09 03:08:35;;;;;;;4.30;1.63;;;9.80;99.90;;;;;;5062566;28;20495;-76
2022/10/09 03:11:02;;;;;;;4.57;1.93;;;9.80;99.90;;;;;;5061405;28;20549;-76
2022/10/09 03:13:30;;;;;;;2.63;1.47;;;9.80;99.90;;;;;;5065006;28;20451;-76
2022/10/09 03:16:03;;;;;;;4.17;2.27;;;9.80;99.90;;;;;;5064757;28;20521;-75
2022/10/09 03:18:30;;;;;;;2.00;1.40;;;9.80;99.90;;;;;;5063860;28;20913;-75
2022/10/09 03:20:57;;;;;;;2.00;1.40;;;9.70;99.90;;;;;;5061862;28;20484;-75
2022/10/09 03:23:26;;;;;;;1.60;1.50;;;9.70;99.90;;;;;;5063264;28;20520;-76
2022/10/09 03:25:56;;;;;;;3.87;1.60;;;9.70;99.90;;;;;;5061171;28;20542;-76
2022/10/09 03:28:24;;;;;;;10.93;2.27;;;9.80;99.90;;;;;;5064717;28;20495;-75
2022/10/09 03:30:51;;;;;;;5.33;2.23;;;9.80;99.90;;;;;;5059108;28;20461;-75
2022/10/09 03:33:18;;;;;;;3.37;2.20;;;9.80;99.90;;;;;;5063320;28;20510;-75
2022/10/09 03:35:46;;;;;;;2.60;1.30;;;9.80;99.90;;;;;;5065416;28;20487;-75
2022/10/09 03:38:12;;;;;;;3.27;1.80;;;9.80;99.90;;;;;;5065300;28;20464;-75
2022/10/09 03:40:41;;;;;;;2.00;1.90;;;9.70;99.90;;;;;;5064325;28;20483;-76
2022/10/09 03:43:08;;;;;;;2.37;2.17;;;9.70;99.90;;;;;;5057747;28;20467;-75
2022/10/09 03:45:35;;;;;;;6.20;2.00;;;9.70;99.90;;;;;;5057366;28;20460;-75
2022/10/09 03:48:02;;;;;;;3.80;2.10;;;9.70;99.90;;;;;;5061172;28;20517;-76
2022/10/09 03:50:29;;;;;;;7.17;3.07;;;9.80;99.90;;;;;;5059931;28;20536;-76
2022/10/09 03:52:56;;;;;;;1.63;1.53;;;9.80;99.90;;;;;;5059325;28;20475;-75
2022/10/09 03:55:24;;;;;;;3.00;1.30;;;9.70;99.90;;;;;;5065149;28;20474;-75
2022/10/09 03:57:52;;;;;;;1.70;1.60;;;9.70;99.90;;;;;;5059689;28;20463;-76
2022/10/09 04:00:19;;;;;;;6.50;1.77;;;9.70;99.90;;;;;;5057422;28;20468;-75
2022/10/09 04:02:46;;;;;;;3.83;1.43;;;9.70;99.90;;;;;;5060298;28;20495;-75
2022/10/09 04:05:13;;;;;;;3.37;1.73;;;9.50;99.90;;;;;;5060101;28;20475;-75
2022/10/09 04:07:40;;;;;;;2.40;1.47;;;9.50;99.90;;;;;;5047340;28;20451;-75
2022/10/09 04:10:08;;;;;;;1.57;1.47;;;9.50;99.90;;;;;;5048197;28;20464;-76
2022/10/09 04:12:35;;;;;;;1.70;1.53;;;9.40;99.90;;;;;;5058458;28;20544;-75
2022/10/09 04:15:04;;;;;;;2.20;1.53;;;9.30;99.90;;;;;;5060250;28;20974;-75
2022/10/09 04:17:31;;;;;;;2.23;1.40;;;9.30;99.90;;;;;;5060304;28;20495;-75
2022/10/09 04:19:58;;;;;;;1.57;1.20;;;9.20;99.90;;;;;;5062578;28;20574;-75
2022/10/09 04:22:25;;;;;;;3.40;1.43;;;9.10;99.90;;;;;;5060370;28;20476;-75
2022/10/09 04:24:52;;;;;;;2.27;1.90;;;9.10;99.90;;;;;;5064122;28;20460;-75
2022/10/09 04:27:19;;;;;;;1.53;1.20;;;9.10;99.90;;;;;;5064622;28;21003;-75
2022/10/09 04:29:46;;;;;;;3.80;1.37;;;9.00;99.90;;;;;;5058928;28;20532;-75
2022/10/09 04:32:14;;;;;;;3.30;1.30;;;9.00;99.90;;;;;;5071135;28;20528;-75
2022/10/09 04:34:41;;;;;;;2.13;1.93;;;9.00;99.90;;;;;;5067656;28;20516;-75
2022/10/09 04:37:08;;;;;;;2.90;1.43;;;9.00;99.90;;;;;;5056365;28;20517;-74
2022/10/09 04:39:35;;;;;;;4.47;1.93;;;9.00;99.90;;;;;;5066242;28;20525;-75
2022/10/09 04:42:02;;;;;;;3.13;1.23;;;9.00;99.90;;;;;;5064490;28;20545;-75
2022/10/09 04:44:29;;;;;;;2.20;1.40;;;9.10;99.90;;;;;;5065544;28;20563;-75
2022/10/09 04:46:56;;;;;;;2.90;1.50;;;9.10;99.90;;;;;;5050449;28;20518;-75
2022/10/09 04:49:24;;;;;;;3.53;1.40;;;9.00;99.90;;;;;;5059526;28;20867;-75
2022/10/09 04:51:51;;;;;;;2.93;1.93;;;9.00;99.90;;;;;;5063243;28;20888;-75
2022/10/09 04:54:18;;;;;;;1.63;1.50;;;9.00;99.90;;;;;;5062741;28;20448;-75
2022/10/09 04:56:45;;;;;;;3.80;1.47;;;9.00;99.90;;;;;;5061709;28;20467;-75
2022/10/09 04:59:12;;;;;;;1.60;1.50;;;9.10;99.90;;;;;;5060623;28;21109;-75
2022/10/09 05:01:39;;;;;;;1.40;1.30;;;9.00;99.90;;;;;;5063478;28;20883;-75
2022/10/09 05:04:05;;;;;;;1.20;0.97;;;9.00;99.90;;;;;;5057883;28;20915;-76
2022/10/09 05:06:34;;;;;;;1.73;1.30;;;8.90;99.90;;;;;;5061143;28;20537;-75
2022/10/09 05:09:01;;;;;;;1.83;1.57;;;8.90;99.90;;;;;;5062508;28;20452;-76
2022/10/09 05:11:28;;;;;;;2.67;1.47;;;8.90;99.90;;;;;;5064880;28;20456;-75
2022/10/09 05:13:57;;;;;;;4.40;1.87;;;8.80;99.90;;;;;;5062941;28;20448;-75
2022/10/09 05:16:26;;;;;;;4.30;2.20;;;8.80;99.90;;;;;;5057410;28;20491;-75
2022/10/09 05:18:55;;;;;;;4.07;2.37;;;8.70;99.90;;;;;;5062193;28;20460;-76
2022/10/09 05:21:23;;;;;;;2.80;2.33;;;8.60;99.90;;;;;;5062768;28;20483;-75
2022/10/09 05:23:53;;;;;;;1.80;1.70;;;8.50;99.90;;;;;;5061590;28;20501;-76
2022/10/09 05:26:22;;;;;;;4.90;2.87;;;8.40;99.90;;;;;;5055782;28;20500;-75
2022/10/09 05:28:50;;;;;;;6.33;2.20;;;8.40;99.90;;;;;;5062562;28;20489;-76
2022/10/09 05:31:20;;;;;;;1.47;1.30;;;8.30;99.90;;;;;;5060896;28;20463;-76
2022/10/09 05:33:47;;;;;;;4.83;2.37;;;8.40;99.90;;;;;;5059346;28;20456;-76
2022/10/09 05:36:14;;;;;;;2.93;2.03;;;8.30;99.90;;;;;;5062447;28;20452;-76
2022/10/09 05:38:41;;;;;;;3.70;1.50;;;8.40;99.90;;;;;;5061575;28;20464;-75
2022/10/09 05:41:12;;;;;;;3.40;2.20;;;8.40;99.90;;;;;;5058345;28;20536;-76
2022/10/09 05:43:41;;;;;;;2.70;2.37;;;8.40;99.90;;;;;;5060898;28;20460;-75
2022/10/09 05:46:10;;;;;;;1.97;1.03;;;8.40;99.90;;;;;;5053976;28;21010;-76
2022/10/09 05:48:38;;;;;;;3.10;1.50;;;8.50;99.90;;;;;;5064617;28;20491;-75
2022/10/09 05:51:10;;;;;;;3.30;1.97;;;8.70;99.90;;;;;;5053607;28;20848;-75
2022/10/09 05:53:38;;;;;;;3.13;1.10;;;8.70;99.90;;;;;;5062737;28;20444;-75
2022/10/09 05:56:17;;;;;;;6.33;2.23;;;8.60;99.90;;;;;;5055390;28;20853;-75
2022/10/09 05:58:48;;;;;;;1.20;1.07;;;8.70;99.90;;;;;;5057281;28;20537;-75
2022/10/09 06:01:15;;;;;;;5.53;1.50;;;8.70;99.90;;;;;;5054904;28;20526;-75
2022/10/09 06:03:42;;;;;;;1.50;1.40;;;8.80;99.90;;;;;;5061117;28;20501;-75
2022/10/09 06:06:09;;;;;;;6.90;1.27;;;8.80;99.90;;;;;;5062932;28;20443;-75
2022/10/09 06:08:38;;;;;;;2.70;1.80;;;8.90;99.90;;;;;;5059002;28;20531;-75
2022/10/09 06:11:18;;;;;;;1.47;1.07;;;8.90;99.90;;;;;;5058698;28;20537;-75
2022/10/09 06:13:45;;;;;;;4.00;2.07;;;9.00;99.90;;;;;;5062164;28;20509;-75
2022/10/09 06:16:14;;;;;;;2.77;1.50;;;8.90;99.90;;;;;;5055991;28;20870;-75
2022/10/09 06:18:45;;;;;;;3.90;1.63;;;8.80;99.90;;;;;;5060807;28;20456;-75
2022/10/09 06:21:12;;;;;;;2.57;1.70;;;8.80;99.90;;;;;;5061395;28;20990;-75
2022/10/09 06:23:39;;;;;;;1.73;1.40;;;8.90;99.90;;;;;;5061238;28;20460;-76
2022/10/09 06:26:09;;;;;;;2.10;1.40;;;9.00;99.90;;;;;;5059047;28;20460;-75
2022/10/09 06:28:38;;;;;;;3.57;1.70;;;9.00;99.90;;;;;;5061127;28;20486;-76
2022/10/09 06:31:07;;;;;;;1.67;1.50;;;9.00;99.90;;;;;;5059273;28;20547;-75
2022/10/09 06:33:35;;;;;;;5.77;2.33;;;9.00;99.90;;;;;;5057177;28;20483;-76
2022/10/09 06:36:03;;;;;;;1.60;1.50;;;9.10;99.90;;;;;;5059653;28;20463;-76
2022/10/09 06:38:30;;;;;;;1.47;1.37;;;9.20;99.90;;;;;;5060256;28;20456;-75
2022/10/09 06:41:02;;;;;;;3.60;1.50;;;9.20;99.90;;;;;;5060822;28;20447;-75
2022/10/09 06:43:29;;;;;;;2.23;1.60;;;9.10;99.90;;;;;;5059857;28;20480;-75
2022/10/09 06:46:01;;;;;;;3.13;1.50;;;9.30;99.90;;;;;;5064799;28;21908;-75
2022/10/09 06:48:29;;;;;;;1.77;1.30;;;9.30;99.90;;;;;;5062905;28;20490;-76
2022/10/09 06:51:00;;;;;;;4.80;2.33;;;9.40;99.90;;;;;;5059200;28;20464;-76
2022/10/09 06:53:27;;;;;;;3.07;1.93;;;9.30;99.90;;;;;;5056373;28;20605;-75
2022/10/09 06:55:54;;;;;;;3.27;2.00;;;9.40;99.90;;;;;;5059247;28;21116;-76
2022/10/09 06:58:21;;;;;;;3.47;2.07;;;9.40;99.90;;;;;;5045579;28;20499;-75
2022/10/09 07:00:48;;;;;;;5.07;2.27;;;9.30;99.90;;;;;;5049204;28;20460;-75
2022/10/09 07:03:16;;;;;;;6.43;1.53;;;9.30;99.90;;;;;;5050922;28;21020;-75
2022/10/09 07:05:43;;;;;;;1.83;1.73;;;9.20;99.90;;;;;;5054244;28;20544;-75
2022/10/09 07:08:10;;;;;;;2.80;2.00;;;9.20;99.90;;;;;;5048363;28;20495;-75
2022/10/09 07:10:37;;;;;;;2.40;1.70;;;9.10;99.90;;;;;;5055524;28;20464;-76
2022/10/09 07:13:04;;;;;;;4.93;1.93;;;9.20;99.90;;;;;;5052377;28;20483;-76
2022/10/09 07:15:31;;;;;;;6.57;2.10;;;9.10;99.90;;;;;;5049645;28;20561;-75
2022/10/09 07:17:59;;;;;;;3.87;2.50;;;9.30;99.90;;;;;;5051729;28;20474;-75
2022/10/09 07:20:27;;;;;;;2.90;1.67;;;9.30;99.90;;;;;;5054277;28;20456;-76
2022/10/09 07:22:54;;;;;;;1.90;1.80;;;9.40;99.90;;;;;;5054810;28;20941;-76
2022/10/09 07:25:21;;;;;;;2.70;2.00;;;9.50;99.90;;;;;;5056032;28;20475;-76
2022/10/09 07:27:48;;;;;;;2.60;2.20;;;9.60;99.90;;;;;;5055111;28;20544;-76
2022/10/09 07:30:15;;;;;;;2.67;2.47;;;9.80;99.90;;;;;;5052471;28;20487;-76
2022/10/09 07:32:42;;;;;;;1.93;1.80;;;10.00;99.90;;;;;;5056418;28;21536;-76
2022/10/09 07:35:09;;;;;;;3.10;1.90;;;10.00;99.90;;;;;;5053642;28;20464;-76
2022/10/09 07:37:37;;;;;;;3.63;2.33;;;10.30;99.90;;;;;;5061902;28;20460;-76
2022/10/09 07:40:05;;;;;;;3.50;2.53;;;10.30;99.90;;;;;;5058133;28;20528;-74
2022/10/09 07:42:32;;;;;;;3.40;3.10;;;10.40;99.90;;;;;;5059603;28;20513;-74
2022/10/09 07:45:00;;;;;;;3.13;2.63;;;10.40;99.90;;;;;;5059934;28;21050;-75
2022/10/09 07:47:27;;;;;;;3.30;2.50;;;10.60;99.90;;;;;;5060468;28;20616;-74
2022/10/09 07:49:54;;;;;;;2.47;2.27;;;10.80;99.90;;;;;;5061973;28;20553;-75
2022/10/09 07:52:20;;;;;;;3.57;2.47;;;11.00;99.90;;;;;;5059210;28;20468;-75
2022/10/09 07:54:49;;;;;;;2.33;1.87;;;11.00;99.90;;;;;;5059051;28;20495;-75
2022/10/09 07:57:16;;;;;;;3.50;2.00;;;11.30;99.90;;;;;;5057445;28;20640;-75
2022/10/09 07:59:43;;;;;;;3.23;2.40;;;11.60;99.90;;;;;;5057223;28;21266;-75
2022/10/09 08:02:10;;;;;;;6.20;2.30;;;11.70;99.90;;;;;;5059256;28;20566;-75
2022/10/09 08:04:37;;;;;;;2.30;1.63;;;11.90;99.90;;;;;;5062418;28;20500;-74
2022/10/09 08:07:04;;;;;;;4.37;2.17;;;11.90;99.90;;;;;;5057394;28;20521;-76
2022/10/09 08:09:31;;;;;;;2.47;2.00;;;12.10;99.90;;;;;;5052417;28;20542;-76
2022/10/09 08:12:01;;;;;;;4.50;2.03;;;12.30;99.90;;;;;;5058210;28;20518;-76
2022/10/09 08:14:27;;;;;;;3.30;2.17;;;12.60;99.90;;;;;;5060982;28;20542;-76
2022/10/09 08:16:54;;;;;;;4.40;2.10;;;12.90;99.90;;;;;;5059687;28;20445;-76
2022/10/09 08:19:21;;;;;;;2.93;1.10;;;12.90;99.90;;;;;;5048806;28;21037;-76
2022/10/09 08:21:48;;;;;;;1.10;0.90;;;13.00;99.90;;;;;;5057510;28;20473;-76
2022/10/09 08:24:15;;;;;;;2.20;1.30;;;13.00;99.90;;;;;;5056217;28;20906;-76
2022/10/09 08:26:43;;;;;;;1.10;1.00;;;13.00;99.90;;;;;;5048413;28;20476;-76
2022/10/09 08:29:14;;;;;;;1.90;0.90;;;13.00;99.90;;;;;;5038873;28;20469;-76
2022/10/09 08:31:41;;;;;;;1.73;1.10;;;13.10;99.90;;;;;;5040532;28;20948;-76
2022/10/09 08:34:09;;;;;;;3.83;1.40;;;13.00;99.90;;;;;;5037547;28;20557;-76
2022/10/09 08:36:36;;;;;;;1.43;0.90;;;12.70;99.90;;;;;;5046541;28;20493;-76
2022/10/09 08:39:03;;;;;;;1.93;0.90;;;12.80;99.90;;;;;;5049491;28;20495;-75
2022/10/09 08:41:42;;;;;;;1.03;0.87;;;13.10;99.90;;;;;;5056278;28;20532;-74
2022/10/09 08:44:15;;;;;;;1.17;0.80;;;13.40;99.90;;;;;;5053689;28;20547;-75
2022/10/09 08:47:05;;;;;;;1.27;1.00;;;13.20;99.90;;;;;;5054488;28;20466;-74
2022/10/09 08:49:40;;;;;;;1.40;1.30;;;13.30;99.90;;;;;;5061079;28;20840;-75
2022/10/09 08:52:19;;;;;;;3.53;1.30;;;13.60;99.90;;;;;;5055493;28;20967;-74
2022/10/09 08:54:46;;;;;;;2.50;0.70;;;13.70;99.90;;;;;;5060291;28;20923;-75
2022/10/09 08:57:15;;;;;;;4.10;1.00;;;13.80;99.90;;;;;;5046640;28;20579;-75
2022/10/09 08:59:44;;;;;;;1.40;1.30;;;14.00;99.90;;;;;;5049027;28;20464;-75
2022/10/09 09:02:33;;;;;;;2.10;1.30;;;14.00;99.90;;;;;;5055413;28;20487;-75
2022/10/09 09:05:14;;;;;;;1.27;1.00;;;14.10;99.90;;;;;;5050643;28;20509;-75
2022/10/09 09:07:49;;;;;;;2.43;0.87;;;14.10;99.90;;;;;;5050391;28;20907;-75
2022/10/09 09:10:27;;;;;;;1.00;0.60;;;13.70;99.90;;;;;;5050792;28;21309;-75
2022/10/09 09:12:57;;;;;;;1.27;0.83;;;13.80;99.90;;;;;;5061378;28;20527;-75
2022/10/09 09:15:38;;;;;;;0.90;0.80;;;13.90;99.90;;;;;;5051940;28;20534;-75
2022/10/09 09:18:19;;;;;;;2.23;0.70;;;14.00;99.90;;;;;;5050915;28;20467;-75
2022/10/09 09:20:52;;;;;;;7.43;0.80;;;14.00;99.90;;;;;;5053850;28;20470;-75
2022/10/09 09:23:22;;;;;;;3.13;1.10;;;14.20;99.90;;;;;;5045393;28;20499;-75
2022/10/09 09:25:49;;;;;;;1.37;1.27;;;14.30;99.90;;;;;;5050910;28;20555;-75
2022/10/09 09:28:21;;;;;;;2.37;0.87;;;14.40;99.90;;;;;;5046100;28;21010;-75
2022/10/09 09:30:54;;;;;;;7.70;0.90;;;14.60;99.90;;;;;;5046471;28;20495;-76
2022/10/09 09:33:30;;;;;;;4.60;1.27;;;14.50;99.90;;;;;;5048762;28;20457;-75
2022/10/09 09:36:07;;;;;;;2.20;0.93;;;14.40;99.90;;;;;;5050117;28;20552;-75
2022/10/09 09:38:34;;;;;;;2.27;0.70;;;14.70;99.90;;;;;;5056939;28;20943;-75
2022/10/09 09:41:01;;;;;;;1.23;0.70;;;14.40;99.90;;;;;;5054165;28;20471;-75
2022/10/09 09:43:28;;;;;;;2.53;0.97;;;14.10;99.90;;;;;;5052776;28;20567;-75
2022/10/09 09:45:59;;;;;;;2.10;1.10;;;13.90;99.90;;;;;;5047686;28;20942;-75
2022/10/09 09:48:34;;;;;;;3.80;0.97;;;13.70;99.90;;;;;;5054754;28;21162;-75
2022/10/09 09:51:03;;;;;;;1.00;0.70;;;13.90;99.90;;;;;;5047912;28;21326;-75
2022/10/09 09:53:33;;;;;;;3.93;1.20;;;14.30;99.90;;;;;;5062056;28;20463;-75
2022/10/09 09:56:00;;;;;;;2.30;0.63;;;14.40;99.90;;;;;;5053027;28;20489;-75
2022/10/09 09:58:34;;;;;;;1.07;0.63;;;14.10;99.90;;;;;;5052217;28;20800;-75
2022/10/09 10:01:05;;;;;;;2.40;0.70;;;14.10;99.90;;;;;;5053494;28;21254;-75
2022/10/09 10:03:34;;;;;;;0.67;0.67;;;13.80;99.90;;;;;;5056958;28;20489;-75
2022/10/09 10:06:01;;;;;;;2.10;1.20;;;13.80;99.90;;;;;;5062133;28;20471;-75
2022/10/09 10:08:30;;;;;;;0.87;0.83;;;13.90;99.90;;;;;;5053984;28;21305;-75
2022/10/09 10:11:00;;;;;;;1.63;0.90;;;13.90;99.90;;;;;;5052283;28;20471;-75
2022/10/09 10:13:33;;;;;;;3.10;0.93;;;13.80;99.90;;;;;;5053905;28;20468;-75
2022/10/09 10:16:02;;;;;;;1.77;0.77;;;13.90;99.90;;;;;;5060439;28;20468;-77
2022/10/09 10:18:36;;;;;;;2.60;1.00;;;14.30;99.90;;;;;;5052569;28;20472;-77
2022/10/09 10:21:07;;;;;;;0.80;0.57;;;14.40;99.90;;;;;;5055970;28;20501;-75
2022/10/09 10:23:37;;;;;;;0.70;0.70;;;14.30;99.90;;;;;;5055079;28;20490;-75
2022/10/09 10:26:10;;;;;;;2.00;0.70;;;14.50;99.90;;;;;;5048065;28;20784;-76
2022/10/09 10:28:47;;;;;;;2.40;0.60;;;14.70;99.90;;;;;;5051916;28;20908;-77
2022/10/09 10:31:22;;;;;;;6.73;0.90;;;14.80;99.90;;;;;;5045629;28;20465;-78
2022/10/09 10:33:54;;;;;;;0.80;0.57;;;15.00;99.90;;;;;;5043883;28;21009;-77
2022/10/09 10:36:22;;;;;;;1.77;1.20;;;15.00;99.90;;;;;;5041919;28;20492;-77
2022/10/09 10:38:53;;;;;;;2.60;0.60;;;14.90;99.90;;;;;;5046332;28;21231;-78
2022/10/09 10:41:26;;;;;;;3.13;0.60;;;15.00;99.90;;;;;;5045943;28;20541;-76
2022/10/09 10:43:58;;;;;;;1.27;0.50;;;14.60;99.90;;;;;;5050361;28;21029;-77
2022/10/09 10:46:31;;;;;;;3.67;1.00;;;14.60;99.90;;;;;;5050536;28;20468;-77
2022/10/09 10:49:00;;;;;;;1.20;0.60;;;14.50;99.90;;;;;;5050066;28;20526;-77
2022/10/09 10:51:46;;;;;;;1.13;0.50;;;14.30;99.90;;;;;;5047117;28;20466;-77
2022/10/09 10:54:26;;;;;;;0.90;0.50;;;14.20;99.90;;;;;;5047623;28;20557;-77
2022/10/09 10:57:03;;;;;;;1.10;0.70;;;14.30;99.90;;;;;;5053278;28;20482;-77
2022/10/09 10:59:39;;;;;;;0.50;0.50;;;14.50;99.90;;;;;;5046591;28;21115;-76
2022/10/09 11:02:36;;;;;;;1.00;0.50;;;14.60;99.90;;;;;;5048748;28;20531;-77
2022/10/09 11:05:18;;;;;;;0.93;0.60;;;14.50;99.90;;;;;;5054265;28;20493;-77
2022/10/09 11:07:55;;;;;;;1.90;0.67;;;14.50;99.90;;;;;;5050552;28;20462;-77
2022/10/09 11:10:39;;;;;;;5.33;0.70;;;14.40;98.90;;;;;;5051835;28;20519;-77
2022/10/09 11:13:13;;;;;;;1.00;0.90;;;14.30;99.50;;;;;;5052604;28;20932;-77
2022/10/09 11:15:49;;;;;;;1.57;1.47;;;14.50;99.30;;;;;;5052666;28;21170;-77
2022/10/09 11:18:30;;;;;;;0.80;0.60;;;14.60;98.30;;;;;;5049223;28;20559;-77
2022/10/09 11:21:41;;;;;;;1.37;0.60;;;14.90;98.40;;;;;;5054373;28;20492;-77
2022/10/09 11:24:44;;;;;;;0.90;0.50;;;15.00;96.60;;;;;;5016268;28;20499;-77
2022/10/09 11:27:18;;;;;;;1.33;0.50;;;15.20;97.20;;;;;;5041549;28;20606;-77
2022/10/09 11:29:50;;;;;;;0.70;0.50;;;15.10;95.50;;;;;;5046749;28;21011;-77
2022/10/09 11:32:21;;;;;;;1.33;0.47;;;14.90;95.40;;;;;;5041202;28;20530;-77
2022/10/09 11:34:55;;;;;;;0.70;0.50;;;14.70;95.10;;;;;;5041797;28;20610;-77
2022/10/09 11:37:27;;;;;;;1.47;0.60;;;14.70;95.30;;;;;;5051067;28;20549;-77
2022/10/09 11:39:54;;;;;;;0.67;0.50;;;14.80;95.50;;;;;;5050760;28;21022;-77
2022/10/09 11:42:25;;;;;;;0.60;0.40;;;14.60;94.60;;;;;;5049507;28;21187;-77
2022/10/09 11:45:02;;;;;;;3.33;0.50;;;14.60;95.50;;;;;;5057010;28;20487;-77
2022/10/09 11:47:38;;;;;;;2.70;0.60;;;14.70;96.90;;;;;;5055792;28;20550;-77
2022/10/09 11:50:33;;;;;;;1.20;0.40;;;14.50;95.30;;;;;;5060804;28;21116;-77
2022/10/09 11:53:06;;;;;;;0.60;0.50;;;14.40;95.50;;;;;;5050140;28;21002;-77
2022/10/09 11:55:34;;;;;;;0.60;0.50;;;14.60;95.00;;;;;;5054670;28;20462;-77
2022/10/09 11:58:20;;;;;;;1.53;0.73;;;14.70;95.60;;;;;;5055934;28;20491;-76
2022/10/09 12:00:49;;;;;;;2.53;0.60;;;14.80;95.40;;;;;;5049444;28;20486;-77
2022/10/09 12:03:32;;;;;;;0.57;0.40;;;14.80;94.20;;;;;;5051675;28;20477;-76
2022/10/09 12:06:07;;;;;;;1.60;0.50;;;15.00;94.90;;;;;;5050196;28;20463;-77
2022/10/09 12:08:35;;;;;;;0.50;0.50;;;15.20;95.40;;;;;;5051235;28;20494;-77
2022/10/09 12:11:13;;;;;;;0.50;0.50;;;15.50;94.90;;;;;;5057878;28;20541;-77
2022/10/09 12:13:47;;;;;;;1.10;0.50;;;15.80;92.90;;;;;;5058799;28;20856;-77
2022/10/09 12:16:42;;;;;;;0.57;0.53;;;16.00;92.90;;;;;;5054837;28;22281;-77
2022/10/09 12:19:18;;;;;;;0.67;0.50;;;16.30;94.40;;;;;;5050943;28;20467;-77
2022/10/09 12:21:51;;;;;;;2.30;0.50;;;16.60;93.80;;;;;;5052468;28;20505;-77
2022/10/09 12:24:23;;;;;;;1.30;0.40;;;16.10;92.10;;;;;;5055108;28;21166;-77
2022/10/09 12:26:53;;;;;;;3.37;0.50;;;16.20;93.00;;;;;;5061446;28;20467;-77
2022/10/09 12:29:26;;;;;;;3.80;1.17;;;16.40;92.40;;;;;;5056788;28;20508;-77
2022/10/09 12:31:58;;;;;;;1.50;0.60;;;16.50;92.30;;;;;;5052345;28;20893;-75
2022/10/09 12:34:30;;;;;;;0.97;0.50;;;16.60;92.00;;;;;;5050394;28;20474;-77
2022/10/09 12:37:11;;;;;;;1.70;0.70;;;16.60;91.90;;;;;;5052556;28;20524;-77
2022/10/09 12:39:39;;;;;;;0.60;0.40;;;16.40;91.60;;;;;;5051062;28;20553;-78
2022/10/09 12:42:08;;;;;;;3.60;1.83;;;16.30;93.90;;;;;;5053630;28;20498;-76
2022/10/09 12:44:38;;;;;;;1.97;0.50;;;16.40;93.00;;;;;;5056656;28;20489;-76
2022/10/09 12:47:08;;;;;;;2.10;0.77;;;16.30;92.30;;;;;;5057304;28;20980;-76
2022/10/09 12:49:35;;;;;;;2.50;0.50;;;16.30;93.10;;;;;;5054924;28;20529;-76
2022/10/09 12:52:02;;;;;;;2.20;0.70;;;16.40;92.60;;;;;;5053816;28;20500;-77
2022/10/09 12:54:32;;;;;;;3.53;0.60;;;16.30;93.70;;;;;;5053934;28;20491;-77
2022/10/09 12:57:00;;;;;;;0.90;0.90;;;16.30;92.70;;;;;;5048170;28;20470;-78
2022/10/09 12:59:28;;;;;;;1.47;0.60;;;16.10;91.70;;;;;;5051672;28;21089;-78
2022/10/09 13:01:58;;;;;;;1.57;0.60;;;16.00;91.70;;;;;;5058359;28;20462;-78
2022/10/09 13:04:28;;;;;;;1.27;0.50;;;16.20;92.50;;;;;;5057517;28;20494;-78